sensor_id;sensor_type;location;lat;lon;timestamp;P1;P2;P0
69346;PMS5003;56494;43.536;5.048;2022-07-17T00:02:15;8.60;7.00;5.00
69346;PMS5003;56494;43.536;5.048;2022-07-17T00:04:42;6.00;6.00;4.00
69346;PMS5003;56494;43.536;5.048;2022-07-17T00:07:09;10.00;5.00;4.25
69346;PMS5003;56494;43.536;5.048;2022-07-17T00:09:36;9.25;6.50;5.50
69346;PMS5003;56494;43.536;5.048;2022-07-17T00:12:03;11.00;9.00;5.00
69346;PMS5003;56494;43.536;5.048;2022-07-17T00:14:29;7.00;7.00;6.00
69346;PMS5003;56494;43.536;5.048;2022-07-17T00:16:56;8.50;8.50;5.75
69346;PMS5003;56494;43.536;5.048;2022-07-17T00:19:24;9.00;9.00;7.00
69346;PMS5003;56494;43.536;5.048;2022-07-17T00:21:51;7.80;5.60;4.00
69346;PMS5003;56494;43.536;5.048;2022-07-17T00:24:21;7.00;7.00;5.00
69346;PMS5003;56494;43.536;5.048;2022-07-17T00:26:48;7.00;7.00;5.00
69346;PMS5003;56494;43.536;5.048;2022-07-17T00:29:15;6.00;6.00;5.00
69346;PMS5003;56494;43.536;5.048;2022-07-17T00:31:42;8.00;8.00;5.00
69346;PMS5003;56494;43.536;5.048;2022-07-17T00:34:09;5.00;5.00;3.75
69346;PMS5003;56494;43.536;5.048;2022-07-17T00:36:37;4.80;4.80;3.40
69346;PMS5003;56494;43.536;5.048;2022-07-17T00:39:03;8.25;7.00;4.75
69346;PMS5003;56494;43.536;5.048;2022-07-17T00:41:30;9.00;6.00;3.60
69346;PMS5003;56494;43.536;5.048;2022-07-17T00:44:06;7.60;6.00;4.00
69346;PMS5003;56494;43.536;5.048;2022-07-17T00:46:33;6.40;6.40;4.20
69346;PMS5003;56494;43.536;5.048;2022-07-17T00:49:00;6.20;5.00;3.20
69346;PMS5003;56494;43.536;5.048;2022-07-17T00:51:27;4.50;4.50;3.50
69346;PMS5003;56494;43.536;5.048;2022-07-17T00:53:55;5.80;4.80;3.00
69346;PMS5003;56494;43.536;5.048;2022-07-17T00:56:23;7.00;5.00;3.00
69346;PMS5003;56494;43.536;5.048;2022-07-17T00:58:50;5.00;5.00;4.00
69346;PMS5003;56494;43.536;5.048;2022-07-17T01:01:17;4.00;4.00;3.00
69346;PMS5003;56494;43.536;5.048;2022-07-17T01:03:44;4.00;4.00;3.40
69346;PMS5003;56494;43.536;5.048;2022-07-17T01:06:11;5.00;5.00;3.00
69346;PMS5003;56494;43.536;5.048;2022-07-17T01:08:38;2.00;2.00;1.00
69346;PMS5003;56494;43.536;5.048;2022-07-17T01:11:05;6.80;3.80;2.80
69346;PMS5003;56494;43.536;5.048;2022-07-17T01:13:32;6.00;5.00;4.00
69346;PMS5003;56494;43.536;5.048;2022-07-17T01:15:58;6.40;3.40;2.40
69346;PMS5003;56494;43.536;5.048;2022-07-17T01:18:25;5.00;5.00;3.00
69346;PMS5003;56494;43.536;5.048;2022-07-17T01:20:52;6.00;4.00;3.00
69346;PMS5003;56494;43.536;5.048;2022-07-17T01:23:19;7.00;6.00;3.60
69346;PMS5003;56494;43.536;5.048;2022-07-17T01:25:46;5.00;5.00;3.00
69346;PMS5003;56494;43.536;5.048;2022-07-17T01:28:12;5.25;4.25;2.25
69346;PMS5003;56494;43.536;5.048;2022-07-17T01:30:50;3.25;3.25;3.00
69346;PMS5003;56494;43.536;5.048;2022-07-17T01:33:18;9.00;7.00;5.00
69346;PMS5003;56494;43.536;5.048;2022-07-17T01:35:46;7.25;5.00;3.00
69346;PMS5003;56494;43.536;5.048;2022-07-17T01:38:13;4.00;3.00;2.00
69346;PMS5003;56494;43.536;5.048;2022-07-17T01:40:39;7.00;5.00;3.00
69346;PMS5003;56494;43.536;5.048;2022-07-17T01:43:06;5.60;5.60;3.00
69346;PMS5003;56494;43.536;5.048;2022-07-17T01:45:33;9.00;4.60;3.60
69346;PMS5003;56494;43.536;5.048;2022-07-17T01:48:01;5.00;5.00;3.20
69346;PMS5003;56494;43.536;5.048;2022-07-17T01:50:27;5.00;5.00;4.00
69346;PMS5003;56494;43.536;5.048;2022-07-17T01:52:54;5.00;5.00;3.00
69346;PMS5003;56494;43.536;5.048;2022-07-17T01:55:20;4.60;4.60;3.00
69346;PMS5003;56494;43.536;5.048;2022-07-17T01:57:48;6.00;6.00;4.00
69346;PMS5003;56494;43.536;5.048;2022-07-17T02:00:15;6.80;6.40;4.40
69346;PMS5003;56494;43.536;5.048;2022-07-17T02:02:43;6.60;6.00;5.00
69346;PMS5003;56494;43.536;5.048;2022-07-17T02:05:10;8.00;7.00;5.00
69346;PMS5003;56494;43.536;5.048;2022-07-17T02:07:37;9.40;7.40;4.00
69346;PMS5003;56494;43.536;5.048;2022-07-17T02:10:08;6.00;6.00;4.00
69346;PMS5003;56494;43.536;5.048;2022-07-17T02:12:35;7.75;6.25;4.00
69346;PMS5003;56494;43.536;5.048;2022-07-17T02:15:03;10.40;7.40;5.00
69346;PMS5003;56494;43.536;5.048;2022-07-17T02:17:29;7.00;5.00;3.00
69346;PMS5003;56494;43.536;5.048;2022-07-17T02:19:56;19.60;6.80;3.80
69346;PMS5003;56494;43.536;5.048;2022-07-17T02:22:23;6.60;5.40;5.00
69346;PMS5003;56494;43.536;5.048;2022-07-17T02:24:49;6.00;6.00;4.50
69346;PMS5003;56494;43.536;5.048;2022-07-17T02:27:16;6.40;6.40;4.00
69346;PMS5003;56494;43.536;5.048;2022-07-17T02:29:42;6.50;5.00;4.00
69346;PMS5003;56494;43.536;5.048;2022-07-17T02:32:09;8.50;6.25;3.25
69346;PMS5003;56494;43.536;5.048;2022-07-17T02:34:36;7.80;7.00;5.00
69346;PMS5003;56494;43.536;5.048;2022-07-17T02:37:02;6.50;6.00;4.00
69346;PMS5003;56494;43.536;5.048;2022-07-17T02:39:29;11.00;7.00;5.00
69346;PMS5003;56494;43.536;5.048;2022-07-17T02:41:56;9.00;7.00;5.00
69346;PMS5003;56494;43.536;5.048;2022-07-17T02:44:22;8.00;8.00;6.00
69346;PMS5003;56494;43.536;5.048;2022-07-17T02:46:49;6.60;5.00;4.00
69346;PMS5003;56494;43.536;5.048;2022-07-17T02:49:15;7.20;6.40;4.80
69346;PMS5003;56494;43.536;5.048;2022-07-17T02:51:42;10.00;7.20;3.60
69346;PMS5003;56494;43.536;5.048;2022-07-17T02:54:09;7.00;7.00;5.00
69346;PMS5003;56494;43.536;5.048;2022-07-17T02:56:35;4.50;4.25;2.00
69346;PMS5003;56494;43.536;5.048;2022-07-17T02:59:02;7.00;7.00;5.00
69346;PMS5003;56494;43.536;5.048;2022-07-17T03:01:28;7.00;7.00;5.00
69346;PMS5003;56494;43.536;5.048;2022-07-17T03:03:56;7.80;6.20;5.00
69346;PMS5003;56494;43.536;5.048;2022-07-17T03:06:22;5.00;5.00;4.25
69346;PMS5003;56494;43.536;5.048;2022-07-17T03:08:49;11.00;8.00;5.00
69346;PMS5003;56494;43.536;5.048;2022-07-17T03:11:17;16.25;8.50;6.00
69346;PMS5003;56494;43.536;5.048;2022-07-17T03:13:43;7.50;6.50;4.50
69346;PMS5003;56494;43.536;5.048;2022-07-17T03:16:10;9.75;6.75;5.75
69346;PMS5003;56494;43.536;5.048;2022-07-17T03:18:36;8.75;6.00;4.00
69346;PMS5003;56494;43.536;5.048;2022-07-17T03:21:03;11.80;7.80;6.20
69346;PMS5003;56494;43.536;5.048;2022-07-17T03:23:30;7.50;7.00;4.50
69346;PMS5003;56494;43.536;5.048;2022-07-17T03:25:57;6.00;4.25;3.00
69346;PMS5003;56494;43.536;5.048;2022-07-17T03:28:24;9.00;8.00;5.00
69346;PMS5003;56494;43.536;5.048;2022-07-17T03:30:50;7.00;7.00;5.00
69346;PMS5003;56494;43.536;5.048;2022-07-17T03:33:17;8.60;6.00;4.60
69346;PMS5003;56494;43.536;5.048;2022-07-17T03:35:43;9.00;7.00;6.00
69346;PMS5003;56494;43.536;5.048;2022-07-17T03:38:10;8.00;8.00;6.00
69346;PMS5003;56494;43.536;5.048;2022-07-17T03:40:37;9.00;8.00;5.00
69346;PMS5003;56494;43.536;5.048;2022-07-17T03:43:03;8.80;8.80;6.00
69346;PMS5003;56494;43.536;5.048;2022-07-17T03:45:30;9.60;5.60;4.60
69346;PMS5003;56494;43.536;5.048;2022-07-17T03:47:57;8.40;6.60;5.00
69346;PMS5003;56494;43.536;5.048;2022-07-17T03:50:23;9.50;7.50;5.50
69346;PMS5003;56494;43.536;5.048;2022-07-17T03:52:50;7.60;7.60;5.60
69346;PMS5003;56494;43.536;5.048;2022-07-17T03:55:17;9.20;6.20;5.00
69346;PMS5003;56494;43.536;5.048;2022-07-17T03:57:43;7.00;7.00;6.00
69346;PMS5003;56494;43.536;5.048;2022-07-17T04:00:10;8.40;8.40;6.00
69346;PMS5003;56494;43.536;5.048;2022-07-17T04:02:36;12.40;9.80;6.80
69346;PMS5003;56494;43.536;5.048;2022-07-17T04:05:03;8.80;8.80;6.00
69346;PMS5003;56494;43.536;5.048;2022-07-17T04:07:30;10.00;10.00;7.00
69346;PMS5003;56494;43.536;5.048;2022-07-17T04:09:58;14.00;11.00;7.60
69346;PMS5003;56494;43.536;5.048;2022-07-17T04:12:26;12.50;11.50;7.50
69346;PMS5003;56494;43.536;5.048;2022-07-17T04:14:52;10.25;10.25;6.25
69346;PMS5003;56494;43.536;5.048;2022-07-17T04:17:19;11.00;10.00;8.00
69346;PMS5003;56494;43.536;5.048;2022-07-17T04:19:46;11.00;11.00;6.50
69346;PMS5003;56494;43.536;5.048;2022-07-17T04:22:12;11.00;11.00;7.00
69346;PMS5003;56494;43.536;5.048;2022-07-17T04:24:39;14.00;12.00;9.00
69346;PMS5003;56494;43.536;5.048;2022-07-17T04:27:07;12.40;11.00;7.00
69346;PMS5003;56494;43.536;5.048;2022-07-17T04:29:33;8.20;8.20;6.80
69346;PMS5003;56494;43.536;5.048;2022-07-17T04:32:00;9.75;7.75;5.75
69346;PMS5003;56494;43.536;5.048;2022-07-17T04:34:27;11.00;9.60;8.00
69346;PMS5003;56494;43.536;5.048;2022-07-17T04:36:54;11.60;10.00;7.80
69346;PMS5003;56494;43.536;5.048;2022-07-17T04:39:21;12.40;11.00;8.00
69346;PMS5003;56494;43.536;5.048;2022-07-17T04:41:49;12.00;10.00;8.00
69346;PMS5003;56494;43.536;5.048;2022-07-17T04:44:16;9.00;9.00;7.00
69346;PMS5003;56494;43.536;5.048;2022-07-17T04:46:43;10.60;10.60;7.40
69346;PMS5003;56494;43.536;5.048;2022-07-17T04:49:10;11.40;11.40;8.00
69346;PMS5003;56494;43.536;5.048;2022-07-17T04:51:36;10.00;9.00;6.00
69346;PMS5003;56494;43.536;5.048;2022-07-17T04:54:03;11.00;11.00;8.20
69346;PMS5003;56494;43.536;5.048;2022-07-17T04:56:30;10.00;10.00;8.00
69346;PMS5003;56494;43.536;5.048;2022-07-17T04:58:57;20.80;10.40;7.00
69346;PMS5003;56494;43.536;5.048;2022-07-17T05:01:23;12.40;10.80;8.40
69346;PMS5003;56494;43.536;5.048;2022-07-17T05:03:50;10.00;10.00;7.40
69346;PMS5003;56494;43.536;5.048;2022-07-17T05:06:17;11.40;11.40;9.40
69346;PMS5003;56494;43.536;5.048;2022-07-17T05:08:44;13.40;12.40;9.00
69346;PMS5003;56494;43.536;5.048;2022-07-17T05:11:10;10.20;10.20;7.00
69346;PMS5003;56494;43.536;5.048;2022-07-17T05:13:37;10.00;10.00;9.00
69346;PMS5003;56494;43.536;5.048;2022-07-17T05:16:04;13.00;11.60;8.60
69346;PMS5003;56494;43.536;5.048;2022-07-17T05:18:31;16.00;11.40;8.40
69346;PMS5003;56494;43.536;5.048;2022-07-17T05:20:57;13.00;13.00;8.00
69346;PMS5003;56494;43.536;5.048;2022-07-17T05:23:24;12.00;11.00;8.00
69346;PMS5003;56494;43.536;5.048;2022-07-17T05:25:51;11.20;10.80;8.80
69346;PMS5003;56494;43.536;5.048;2022-07-17T05:28:17;13.00;13.00;10.00
69346;PMS5003;56494;43.536;5.048;2022-07-17T05:30:44;24.00;9.00;7.00
69346;PMS5003;56494;43.536;5.048;2022-07-17T05:33:10;14.80;12.00;8.80
69346;PMS5003;56494;43.536;5.048;2022-07-17T05:35:37;12.00;11.80;9.00
69346;PMS5003;56494;43.536;5.048;2022-07-17T05:38:04;15.40;13.00;9.40
69346;PMS5003;56494;43.536;5.048;2022-07-17T05:40:31;14.50;13.75;9.50
69346;PMS5003;56494;43.536;5.048;2022-07-17T05:42:58;14.00;14.00;10.00
69346;PMS5003;56494;43.536;5.048;2022-07-17T05:45:25;13.75;13.00;10.00
69346;PMS5003;56494;43.536;5.048;2022-07-17T05:47:51;13.50;12.00;9.00
69346;PMS5003;56494;43.536;5.048;2022-07-17T05:50:18;14.00;14.00;10.60
69346;PMS5003;56494;43.536;5.048;2022-07-17T05:52:45;12.50;12.50;10.00
69346;PMS5003;56494;43.536;5.048;2022-07-17T05:55:11;14.20;11.00;8.00
69346;PMS5003;56494;43.536;5.048;2022-07-17T05:57:38;13.00;11.40;8.00
69346;PMS5003;56494;43.536;5.048;2022-07-17T06:00:05;13.00;10.80;8.00
69346;PMS5003;56494;43.536;5.048;2022-07-17T06:02:31;13.00;12.00;8.00
69346;PMS5003;56494;43.536;5.048;2022-07-17T06:04:58;13.00;11.00;9.00
69346;PMS5003;56494;43.536;5.048;2022-07-17T06:07:25;13.00;11.40;9.00
69346;PMS5003;56494;43.536;5.048;2022-07-17T06:09:51;11.40;10.00;8.00
69346;PMS5003;56494;43.536;5.048;2022-07-17T06:12:18;11.00;10.50;8.50
69346;PMS5003;56494;43.536;5.048;2022-07-17T06:14:45;13.60;10.60;9.00
69346;PMS5003;56494;43.536;5.048;2022-07-17T06:17:11;14.40;11.60;8.60
69346;PMS5003;56494;43.536;5.048;2022-07-17T06:19:38;12.80;11.20;8.80
69346;PMS5003;56494;43.536;5.048;2022-07-17T06:22:04;11.00;11.00;8.00
69346;PMS5003;56494;43.536;5.048;2022-07-17T06:24:31;11.80;11.80;9.20
69346;PMS5003;56494;43.536;5.048;2022-07-17T06:26:58;11.20;11.20;8.20
69346;PMS5003;56494;43.536;5.048;2022-07-17T06:29:24;13.80;11.00;9.00
69346;PMS5003;56494;43.536;5.048;2022-07-17T06:31:52;11.00;11.00;9.00
69346;PMS5003;56494;43.536;5.048;2022-07-17T06:34:18;12.00;12.00;9.20
69346;PMS5003;56494;43.536;5.048;2022-07-17T06:36:45;16.00;14.00;9.60
69346;PMS5003;56494;43.536;5.048;2022-07-17T06:39:12;15.20;15.00;10.00
69346;PMS5003;56494;43.536;5.048;2022-07-17T06:41:39;14.00;14.00;11.00
69346;PMS5003;56494;43.536;5.048;2022-07-17T06:44:06;16.00;14.00;12.00
69346;PMS5003;56494;43.536;5.048;2022-07-17T06:46:32;23.40;16.00;13.00
69346;PMS5003;56494;43.536;5.048;2022-07-17T06:48:59;17.20;17.20;12.20
69346;PMS5003;56494;43.536;5.048;2022-07-17T06:51:26;18.00;18.00;12.00
69346;PMS5003;56494;43.536;5.048;2022-07-17T06:53:53;15.00;15.00;12.00
69346;PMS5003;56494;43.536;5.048;2022-07-17T06:56:19;19.00;17.00;15.00
69346;PMS5003;56494;43.536;5.048;2022-07-17T06:58:46;15.25;15.25;12.00
69346;PMS5003;56494;43.536;5.048;2022-07-17T07:01:13;16.00;15.00;10.80
69346;PMS5003;56494;43.536;5.048;2022-07-17T07:03:39;17.00;17.00;11.80
69346;PMS5003;56494;43.536;5.048;2022-07-17T07:06:06;17.00;17.00;13.00
69346;PMS5003;56494;43.536;5.048;2022-07-17T07:08:33;20.00;20.00;16.50
69346;PMS5003;56494;43.536;5.048;2022-07-17T07:11:00;18.75;18.75;15.00
69346;PMS5003;56494;43.536;5.048;2022-07-17T07:13:28;19.00;19.00;16.00
69346;PMS5003;56494;43.536;5.048;2022-07-17T07:15:54;18.80;17.20;15.00
69346;PMS5003;56494;43.536;5.048;2022-07-17T07:18:21;21.40;19.00;15.00
69346;PMS5003;56494;43.536;5.048;2022-07-17T07:20:48;32.80;18.40;15.00
69346;PMS5003;56494;43.536;5.048;2022-07-17T07:23:14;32.00;18.75;14.00
69346;PMS5003;56494;43.536;5.048;2022-07-17T07:25:41;19.25;19.25;16.00
69346;PMS5003;56494;43.536;5.048;2022-07-17T07:28:09;18.00;17.50;13.50
69346;PMS5003;56494;43.536;5.048;2022-07-17T07:30:36;20.40;20.40;16.00
69346;PMS5003;56494;43.536;5.048;2022-07-17T07:33:03;26.50;20.25;15.50
69346;PMS5003;56494;43.536;5.048;2022-07-17T07:35:30;20.00;19.00;14.50
69346;PMS5003;56494;43.536;5.048;2022-07-17T07:37:56;16.50;16.50;12.50
69346;PMS5003;56494;43.536;5.048;2022-07-17T07:40:23;35.50;18.00;12.75
69346;PMS5003;56494;43.536;5.048;2022-07-17T07:42:50;16.80;15.60;12.60
69346;PMS5003;56494;43.536;5.048;2022-07-17T07:45:17;30.50;20.25;13.75
69346;PMS5003;56494;43.536;5.048;2022-07-17T07:47:44;17.50;16.50;13.50
69346;PMS5003;56494;43.536;5.048;2022-07-17T07:50:12;20.75;17.75;13.75
69346;PMS5003;56494;43.536;5.048;2022-07-17T07:52:39;19.00;19.00;15.00
69346;PMS5003;56494;43.536;5.048;2022-07-17T07:55:06;20.00;18.00;13.75
69346;PMS5003;56494;43.536;5.048;2022-07-17T07:57:34;18.00;18.00;15.00
69346;PMS5003;56494;43.536;5.048;2022-07-17T08:00:01;18.50;18.50;14.00
69346;PMS5003;56494;43.536;5.048;2022-07-17T08:02:28;16.00;14.50;11.00
69346;PMS5003;56494;43.536;5.048;2022-07-17T08:04:54;22.40;18.00;14.00
69346;PMS5003;56494;43.536;5.048;2022-07-17T08:07:22;18.00;18.00;13.50
69346;PMS5003;56494;43.536;5.048;2022-07-17T08:09:48;20.00;18.00;14.00
69346;PMS5003;56494;43.536;5.048;2022-07-17T08:12:15;19.75;18.00;13.75
69346;PMS5003;56494;43.536;5.048;2022-07-17T08:15:02;16.25;15.00;12.00
69346;PMS5003;56494;43.536;5.048;2022-07-17T08:17:29;19.00;18.00;13.80
69346;PMS5003;56494;43.536;5.048;2022-07-17T08:19:56;20.00;17.60;13.00
69346;PMS5003;56494;43.536;5.048;2022-07-17T08:22:22;16.40;16.00;12.00
69346;PMS5003;56494;43.536;5.048;2022-07-17T08:25:09;18.75;16.75;13.75
69346;PMS5003;56494;43.536;5.048;2022-07-17T08:27:40;16.00;15.00;12.00
69346;PMS5003;56494;43.536;5.048;2022-07-17T08:30:08;20.75;18.25;11.75
69346;PMS5003;56494;43.536;5.048;2022-07-17T08:32:35;15.00;15.00;12.50
69346;PMS5003;56494;43.536;5.048;2022-07-17T08:35:02;16.20;15.80;11.60
69346;PMS5003;56494;43.536;5.048;2022-07-17T08:37:29;13.50;13.00;11.00
69346;PMS5003;56494;43.536;5.048;2022-07-17T08:39:57;30.00;15.20;11.40
69346;PMS5003;56494;43.536;5.048;2022-07-17T08:42:23;16.00;15.00;11.00
69346;PMS5003;56494;43.536;5.048;2022-07-17T08:44:50;15.20;15.20;12.60
69346;PMS5003;56494;43.536;5.048;2022-07-17T08:47:17;17.80;16.80;12.40
69346;PMS5003;56494;43.536;5.048;2022-07-17T08:49:45;17.00;16.50;12.00
69346;PMS5003;56494;43.536;5.048;2022-07-17T08:52:12;30.50;15.00;10.25
69346;PMS5003;56494;43.536;5.048;2022-07-17T08:54:39;13.25;12.00;10.00
69346;PMS5003;56494;43.536;5.048;2022-07-17T08:57:07;15.00;15.00;13.00
69346;PMS5003;56494;43.536;5.048;2022-07-17T08:59:34;32.25;15.25;12.75
69346;PMS5003;56494;43.536;5.048;2022-07-17T09:02:03;18.25;16.00;13.00
69346;PMS5003;56494;43.536;5.048;2022-07-17T09:04:30;18.60;18.60;14.60
69346;PMS5003;56494;43.536;5.048;2022-07-17T09:06:58;18.00;16.00;13.00
69346;PMS5003;56494;43.536;5.048;2022-07-17T09:09:25;16.75;16.75;12.75
69346;PMS5003;56494;43.536;5.048;2022-07-17T09:11:51;18.00;16.80;14.00
69346;PMS5003;56494;43.536;5.048;2022-07-17T09:14:19;23.25;19.00;14.25
69346;PMS5003;56494;43.536;5.048;2022-07-17T09:16:50;17.60;16.00;13.40
69346;PMS5003;56494;43.536;5.048;2022-07-17T09:19:27;33.00;18.50;13.25
69346;PMS5003;56494;43.536;5.048;2022-07-17T09:22:04;20.00;20.00;15.00
69346;PMS5003;56494;43.536;5.048;2022-07-17T09:24:41;20.40;19.40;15.00
69346;PMS5003;56494;43.536;5.048;2022-07-17T09:27:09;16.50;16.50;13.00
69346;PMS5003;56494;43.536;5.048;2022-07-17T09:29:49;17.50;16.25;14.00
69346;PMS5003;56494;43.536;5.048;2022-07-17T09:32:18;17.60;16.00;13.00
69346;PMS5003;56494;43.536;5.048;2022-07-17T09:34:45;21.40;19.80;15.20
69346;PMS5003;56494;43.536;5.048;2022-07-17T09:37:12;20.00;18.75;13.25
69346;PMS5003;56494;43.536;5.048;2022-07-17T09:39:38;22.00;19.60;15.60
69346;PMS5003;56494;43.536;5.048;2022-07-17T09:42:06;18.60;17.40;13.60
69346;PMS5003;56494;43.536;5.048;2022-07-17T09:44:33;19.00;18.00;13.00
69346;PMS5003;56494;43.536;5.048;2022-07-17T09:47:01;15.50;15.50;12.50
69346;PMS5003;56494;43.536;5.048;2022-07-17T09:49:28;18.75;18.75;15.75
69346;PMS5003;56494;43.536;5.048;2022-07-17T09:51:55;20.25;18.25;13.75
69346;PMS5003;56494;43.536;5.048;2022-07-17T09:54:22;19.75;19.00;15.25
69346;PMS5003;56494;43.536;5.048;2022-07-17T09:56:49;20.00;17.00;14.00
69346;PMS5003;56494;43.536;5.048;2022-07-17T09:59:16;18.25;17.25;13.00
69346;PMS5003;56494;43.536;5.048;2022-07-17T10:01:44;17.00;17.00;14.00
69346;PMS5003;56494;43.536;5.048;2022-07-17T10:04:11;16.50;16.50;12.00
69346;PMS5003;56494;43.536;5.048;2022-07-17T10:06:38;18.00;18.00;14.75
69346;PMS5003;56494;43.536;5.048;2022-07-17T10:09:05;19.20;15.80;12.40
69346;PMS5003;56494;43.536;5.048;2022-07-17T10:11:33;19.00;19.00;15.00
69346;PMS5003;56494;43.536;5.048;2022-07-17T10:14:05;19.00;18.00;13.40
69346;PMS5003;56494;43.536;5.048;2022-07-17T10:16:33;16.50;16.50;14.50
69346;PMS5003;56494;43.536;5.048;2022-07-17T10:19:00;19.40;19.40;14.40
69346;PMS5003;56494;43.536;5.048;2022-07-17T10:21:30;20.00;17.00;14.00
69346;PMS5003;56494;43.536;5.048;2022-07-17T10:26:38;18.75;18.75;15.75
69346;PMS5003;56494;43.536;5.048;2022-07-17T10:29:24;25.60;24.00;18.00
69346;PMS5003;56494;43.536;5.048;2022-07-17T10:31:52;18.75;18.75;16.00
69346;PMS5003;56494;43.536;5.048;2022-07-17T10:34:21;20.00;18.20;14.40
69346;PMS5003;56494;43.536;5.048;2022-07-17T10:36:48;22.40;20.40;15.60
69346;PMS5003;56494;43.536;5.048;2022-07-17T10:39:19;20.40;20.40;17.00
69346;PMS5003;56494;43.536;5.048;2022-07-17T10:41:57;20.50;19.00;16.00
69346;PMS5003;56494;43.536;5.048;2022-07-17T10:44:28;18.00;17.00;14.20
69346;PMS5003;56494;43.536;5.048;2022-07-17T10:46:55;19.80;16.40;13.00
69346;PMS5003;56494;43.536;5.048;2022-07-17T10:49:23;21.40;20.00;16.00
69346;PMS5003;56494;43.536;5.048;2022-07-17T10:51:49;18.40;18.40;14.00
69346;PMS5003;56494;43.536;5.048;2022-07-17T10:54:20;19.00;17.00;14.00
69346;PMS5003;56494;43.536;5.048;2022-07-17T10:56:47;20.40;18.20;14.00
69346;PMS5003;56494;43.536;5.048;2022-07-17T10:59:14;18.60;18.60;13.00
69346;PMS5003;56494;43.536;5.048;2022-07-17T11:01:41;23.60;21.20;15.20
69346;PMS5003;56494;43.536;5.048;2022-07-17T11:04:08;18.00;18.00;13.50
69346;PMS5003;56494;43.536;5.048;2022-07-17T11:06:35;17.60;15.60;13.00
69346;PMS5003;56494;43.536;5.048;2022-07-17T11:11:42;33.40;17.60;14.00
69346;PMS5003;56494;43.536;5.048;2022-07-17T11:14:16;19.00;17.50;12.50
69346;PMS5003;56494;43.536;5.048;2022-07-17T11:19:12;16.50;16.50;13.50
69346;PMS5003;56494;43.536;5.048;2022-07-17T11:21:48;16.40;16.40;12.80
69346;PMS5003;56494;43.536;5.048;2022-07-17T11:24:15;18.50;18.00;14.00
69346;PMS5003;56494;43.536;5.048;2022-07-17T11:26:42;26.20;17.60;14.60
69346;PMS5003;56494;43.536;5.048;2022-07-17T11:29:08;18.40;16.60;12.60
69346;PMS5003;56494;43.536;5.048;2022-07-17T11:31:35;16.00;16.00;13.00
69346;PMS5003;56494;43.536;5.048;2022-07-17T11:34:03;21.00;19.00;15.00
69346;PMS5003;56494;43.536;5.048;2022-07-17T11:39:02;19.00;17.40;15.00
69346;PMS5003;56494;43.536;5.048;2022-07-17T11:41:34;19.50;19.50;15.00
69346;PMS5003;56494;43.536;5.048;2022-07-17T11:44:01;18.20;18.20;15.00
69346;PMS5003;56494;43.536;5.048;2022-07-17T11:46:29;28.20;17.60;14.60
69346;PMS5003;56494;43.536;5.048;2022-07-17T11:48:57;18.00;17.50;14.00
69346;PMS5003;56494;43.536;5.048;2022-07-17T11:51:40;17.60;16.40;13.60
69346;PMS5003;56494;43.536;5.048;2022-07-17T11:54:08;17.20;16.00;13.60
69346;PMS5003;56494;43.536;5.048;2022-07-17T11:56:35;18.40;16.40;14.00
69346;PMS5003;56494;43.536;5.048;2022-07-17T11:59:02;18.00;18.00;14.00
69346;PMS5003;56494;43.536;5.048;2022-07-17T12:01:29;17.25;16.75;14.75
69346;PMS5003;56494;43.536;5.048;2022-07-17T12:04:03;16.20;15.60;13.60
69346;PMS5003;56494;43.536;5.048;2022-07-17T12:06:30;18.60;18.00;14.40
69346;PMS5003;56494;43.536;5.048;2022-07-17T12:08:58;24.80;17.60;14.00
69346;PMS5003;56494;43.536;5.048;2022-07-17T12:11:25;19.00;17.75;14.00
69346;PMS5003;56494;43.536;5.048;2022-07-17T12:13:52;18.00;18.00;15.00
69346;PMS5003;56494;43.536;5.048;2022-07-17T12:16:27;20.40;20.40;14.40
69346;PMS5003;56494;43.536;5.048;2022-07-17T12:18:56;19.00;19.00;15.00
69346;PMS5003;56494;43.536;5.048;2022-07-17T12:21:23;20.25;18.50;14.00
69346;PMS5003;56494;43.536;5.048;2022-07-17T12:23:56;20.50;20.00;14.50
69346;PMS5003;56494;43.536;5.048;2022-07-17T12:26:24;18.00;17.00;15.00
69346;PMS5003;56494;43.536;5.048;2022-07-17T12:28:52;20.00;18.40;15.00
69346;PMS5003;56494;43.536;5.048;2022-07-17T12:31:26;17.75;17.75;14.00
69346;PMS5003;56494;43.536;5.048;2022-07-17T12:33:53;18.20;18.20;15.00
69346;PMS5003;56494;43.536;5.048;2022-07-17T12:36:21;19.75;18.00;14.00
69346;PMS5003;56494;43.536;5.048;2022-07-17T12:38:48;21.00;19.50;14.00
69346;PMS5003;56494;43.536;5.048;2022-07-17T12:41:14;19.75;19.75;15.50
69346;PMS5003;56494;43.536;5.048;2022-07-17T12:43:41;16.60;15.20;11.80
69346;PMS5003;56494;43.536;5.048;2022-07-17T12:46:08;21.75;20.00;16.25
69346;PMS5003;56494;43.536;5.048;2022-07-17T12:48:41;18.25;17.00;14.00
69346;PMS5003;56494;43.536;5.048;2022-07-17T12:51:10;18.25;18.00;14.50
69346;PMS5003;56494;43.536;5.048;2022-07-17T12:53:36;19.40;18.40;14.20
69346;PMS5003;56494;43.536;5.048;2022-07-17T12:56:04;17.00;17.00;12.50
69346;PMS5003;56494;43.536;5.048;2022-07-17T12:58:31;16.80;16.80;14.00
69346;PMS5003;56494;43.536;5.048;2022-07-17T13:00:57;19.00;19.00;14.00
69346;PMS5003;56494;43.536;5.048;2022-07-17T13:03:24;19.60;18.00;15.00
69346;PMS5003;56494;43.536;5.048;2022-07-17T13:05:51;20.50;19.50;15.50
69346;PMS5003;56494;43.536;5.048;2022-07-17T13:08:18;16.00;16.00;13.00
69346;PMS5003;56494;43.536;5.048;2022-07-17T13:10:45;18.00;17.00;13.00
69346;PMS5003;56494;43.536;5.048;2022-07-17T13:13:12;17.00;17.00;13.00
69346;PMS5003;56494;43.536;5.048;2022-07-17T13:15:38;30.80;18.00;14.00
69346;PMS5003;56494;43.536;5.048;2022-07-17T13:18:05;17.80;17.80;15.00
69346;PMS5003;56494;43.536;5.048;2022-07-17T13:20:32;15.40;15.40;11.40
69346;PMS5003;56494;43.536;5.048;2022-07-17T13:22:58;25.50;16.50;14.25
69346;PMS5003;56494;43.536;5.048;2022-07-17T13:25:25;15.80;15.40;11.00
69346;PMS5003;56494;43.536;5.048;2022-07-17T13:27:52;15.60;15.60;12.80
69346;PMS5003;56494;43.536;5.048;2022-07-17T13:30:19;16.00;16.00;12.80
69346;PMS5003;56494;43.536;5.048;2022-07-17T13:32:46;20.50;17.50;12.00
69346;PMS5003;56494;43.536;5.048;2022-07-17T13:35:13;18.20;17.00;12.20
69346;PMS5003;56494;43.536;5.048;2022-07-17T13:37:39;16.60;16.00;12.00
69346;PMS5003;56494;43.536;5.048;2022-07-17T13:40:06;14.00;14.00;11.40
69346;PMS5003;56494;43.536;5.048;2022-07-17T13:42:33;25.80;14.80;12.60
69346;PMS5003;56494;43.536;5.048;2022-07-17T13:45:00;20.00;15.00;11.80
69346;PMS5003;56494;43.536;5.048;2022-07-17T13:47:26;21.40;17.60;14.00
69346;PMS5003;56494;43.536;5.048;2022-07-17T13:49:53;16.40;14.40;12.40
69346;PMS5003;56494;43.536;5.048;2022-07-17T13:52:20;17.40;17.40;13.00
69346;PMS5003;56494;43.536;5.048;2022-07-17T13:54:46;16.00;16.00;12.50
69346;PMS5003;56494;43.536;5.048;2022-07-17T13:57:13;17.40;16.00;12.00
69346;PMS5003;56494;43.536;5.048;2022-07-17T13:59:40;15.50;15.50;12.00
69346;PMS5003;56494;43.536;5.048;2022-07-17T14:02:07;16.80;16.80;11.80
69346;PMS5003;56494;43.536;5.048;2022-07-17T14:04:34;16.60;16.60;13.00
69346;PMS5003;56494;43.536;5.048;2022-07-17T14:07:00;16.25;14.75;11.75
69346;PMS5003;56494;43.536;5.048;2022-07-17T14:09:27;20.40;16.40;13.40
69346;PMS5003;56494;43.536;5.048;2022-07-17T14:11:54;17.00;17.00;12.00